sensor_id;sensor_type;location;lat;lon;timestamp;P1;durP1;ratioP1;P2;durP2;ratioP2
16504;SDS011;8365;51.030;4.696;2022-09-27T00:00:20;7.87;;;2.50;;
16504;SDS011;8365;51.030;4.696;2022-09-27T00:02:52;5.90;;;2.43;;
16504;SDS011;8365;51.030;4.696;2022-09-27T00:05:23;4.87;;;2.33;;
16504;SDS011;8365;51.030;4.696;2022-09-27T00:07:53;4.93;;;2.03;;
16504;SDS011;8365;51.030;4.696;2022-09-27T00:10:24;6.23;;;1.87;;
16504;SDS011;8365;51.030;4.696;2022-09-27T00:12:54;3.73;;;1.60;;
16504;SDS011;8365;51.030;4.696;2022-09-27T00:15:25;3.00;;;1.47;;
16504;SDS011;8365;51.030;4.696;2022-09-27T00:17:55;2.27;;;1.30;;
16504;SDS011;8365;51.030;4.696;2022-09-27T00:20:26;5.10;;;1.50;;
16504;SDS011;8365;51.030;4.696;2022-09-27T00:22:56;5.57;;;1.70;;
16504;SDS011;8365;51.030;4.696;2022-09-27T00:25:27;3.77;;;1.83;;
16504;SDS011;8365;51.030;4.696;2022-09-27T00:27:57;3.03;;;1.30;;
16504;SDS011;8365;51.030;4.696;2022-09-27T00:30:27;5.17;;;1.70;;
16504;SDS011;8365;51.030;4.696;2022-09-27T00:32:58;2.93;;;1.50;;
16504;SDS011;8365;51.030;4.696;2022-09-27T00:35:28;3.00;;;1.50;;
16504;SDS011;8365;51.030;4.696;2022-09-27T00:37:59;5.87;;;1.80;;
16504;SDS011;8365;51.030;4.696;2022-09-27T00:40:29;3.40;;;1.60;;
16504;SDS011;8365;51.030;4.696;2022-09-27T00:43:00;2.87;;;1.67;;
16504;SDS011;8365;51.030;4.696;2022-09-27T00:45:30;3.17;;;1.40;;
16504;SDS011;8365;51.030;4.696;2022-09-27T00:48:02;3.87;;;2.07;;
16504;SDS011;8365;51.030;4.696;2022-09-27T00:50:35;5.87;;;1.97;;
16504;SDS011;8365;51.030;4.696;2022-09-27T00:53:09;3.80;;;1.70;;
16504;SDS011;8365;51.030;4.696;2022-09-27T00:55:45;4.57;;;2.17;;
16504;SDS011;8365;51.030;4.696;2022-09-27T00:58:29;3.40;;;1.93;;
16504;SDS011;8365;51.030;4.696;2022-09-27T01:01:05;4.40;;;2.60;;
16504;SDS011;8365;51.030;4.696;2022-09-27T01:06:21;4.70;;;2.57;;
16504;SDS011;8365;51.030;4.696;2022-09-27T01:08:54;5.40;;;2.73;;
16504;SDS011;8365;51.030;4.696;2022-09-27T01:44:44;1.63;;;1.37;;
16504;SDS011;8365;51.030;4.696;2022-09-27T01:47:20;2.67;;;1.23;;
16504;SDS011;8365;51.030;4.696;2022-09-27T01:49:55;2.93;;;1.40;;
16504;SDS011;8365;51.030;4.696;2022-09-27T01:52:34;1.77;;;1.10;;
16504;SDS011;8365;51.030;4.696;2022-09-27T01:55:10;1.17;;;0.93;;
16504;SDS011;8365;51.030;4.696;2022-09-27T01:57:48;2.10;;;1.20;;
16504;SDS011;8365;51.030;4.696;2022-09-27T02:00:26;2.47;;;1.10;;
16504;SDS011;8365;51.030;4.696;2022-09-27T02:02:58;1.77;;;1.10;;
16504;SDS011;8365;51.030;4.696;2022-09-27T02:05:37;2.13;;;0.90;;
16504;SDS011;8365;51.030;4.696;2022-09-27T02:08:27;2.97;;;1.40;;
16504;SDS011;8365;51.030;4.696;2022-09-27T02:11:07;2.33;;;1.23;;
16504;SDS011;8365;51.030;4.696;2022-09-27T02:13:51;2.60;;;1.27;;
16504;SDS011;8365;51.030;4.696;2022-09-27T02:24:52;2.40;;;1.30;;
16504;SDS011;8365;51.030;4.696;2022-09-27T02:30:53;1.90;;;1.00;;
16504;SDS011;8365;51.030;4.696;2022-09-27T02:33:35;8.13;;;1.43;;
16504;SDS011;8365;51.030;4.696;2022-09-27T02:36:11;2.13;;;1.30;;
16504;SDS011;8365;51.030;4.696;2022-09-27T02:38:42;3.80;;;1.10;;
16504;SDS011;8365;51.030;4.696;2022-09-27T02:41:22;3.57;;;1.10;;
16504;SDS011;8365;51.030;4.696;2022-09-27T02:43:53;1.10;;;1.00;;
16504;SDS011;8365;51.030;4.696;2022-09-27T02:52:12;1.93;;;0.97;;
16504;SDS011;8365;51.030;4.696;2022-09-27T03:00:29;1.57;;;0.80;;
16504;SDS011;8365;51.030;4.696;2022-09-27T03:03:25;2.83;;;0.80;;
16504;SDS011;8365;51.030;4.696;2022-09-27T03:06:04;2.17;;;0.90;;
16504;SDS011;8365;51.030;4.696;2022-09-27T03:08:37;1.90;;;0.70;;
16504;SDS011;8365;51.030;4.696;2022-09-27T03:11:08;1.30;;;1.00;;
16504;SDS011;8365;51.030;4.696;2022-09-27T03:13:39;3.50;;;1.00;;
16504;SDS011;8365;51.030;4.696;2022-09-27T03:16:12;2.43;;;0.67;;
16504;SDS011;8365;51.030;4.696;2022-09-27T03:18:45;1.20;;;0.70;;
16504;SDS011;8365;51.030;4.696;2022-09-27T03:21:15;1.23;;;0.67;;
16504;SDS011;8365;51.030;4.696;2022-09-27T03:23:45;2.10;;;0.70;;
16504;SDS011;8365;51.030;4.696;2022-09-27T03:26:16;2.03;;;0.67;;
16504;SDS011;8365;51.030;4.696;2022-09-27T03:28:46;0.60;;;0.60;;
16504;SDS011;8365;51.030;4.696;2022-09-27T03:31:17;0.77;;;0.53;;
16504;SDS011;8365;51.030;4.696;2022-09-27T03:33:47;1.53;;;0.60;;
16504;SDS011;8365;51.030;4.696;2022-09-27T03:36:18;0.50;;;0.50;;
16504;SDS011;8365;51.030;4.696;2022-09-27T03:38:48;0.87;;;0.57;;
16504;SDS011;8365;51.030;4.696;2022-09-27T03:41:19;2.63;;;0.73;;
16504;SDS011;8365;51.030;4.696;2022-09-27T03:43:49;0.63;;;0.60;;
16504;SDS011;8365;51.030;4.696;2022-09-27T03:46:20;0.50;;;0.50;;
16504;SDS011;8365;51.030;4.696;2022-09-27T03:48:51;2.27;;;0.60;;
16504;SDS011;8365;51.030;4.696;2022-09-27T03:51:21;1.10;;;0.57;;
16504;SDS011;8365;51.030;4.696;2022-09-27T03:53:52;1.20;;;0.90;;
16504;SDS011;8365;51.030;4.696;2022-09-27T03:56:22;2.50;;;0.90;;
16504;SDS011;8365;51.030;4.696;2022-09-27T03:58:52;2.43;;;0.90;;
16504;SDS011;8365;51.030;4.696;2022-09-27T04:01:23;0.80;;;0.80;;
16504;SDS011;8365;51.030;4.696;2022-09-27T04:03:55;1.57;;;0.80;;
16504;SDS011;8365;51.030;4.696;2022-09-27T04:06:25;2.10;;;1.00;;
16504;SDS011;8365;51.030;4.696;2022-09-27T04:08:56;3.80;;;1.03;;
16504;SDS011;8365;51.030;4.696;2022-09-27T04:11:26;1.23;;;0.73;;
16504;SDS011;8365;51.030;4.696;2022-09-27T04:13:56;4.23;;;1.10;;
16504;SDS011;8365;51.030;4.696;2022-09-27T04:16:27;2.03;;;1.17;;
16504;SDS011;8365;51.030;4.696;2022-09-27T04:18:58;2.67;;;1.40;;
16504;SDS011;8365;51.030;4.696;2022-09-27T04:21:28;1.17;;;1.00;;
16504;SDS011;8365;51.030;4.696;2022-09-27T04:23:59;1.23;;;1.13;;
16504;SDS011;8365;51.030;4.696;2022-09-27T04:26:29;2.00;;;1.27;;
16504;SDS011;8365;51.030;4.696;2022-09-27T04:29:00;1.53;;;1.20;;
16504;SDS011;8365;51.030;4.696;2022-09-27T04:31:30;4.83;;;1.20;;
16504;SDS011;8365;51.030;4.696;2022-09-27T04:34:00;3.20;;;1.37;;
16504;SDS011;8365;51.030;4.696;2022-09-27T04:36:31;2.00;;;1.23;;
16504;SDS011;8365;51.030;4.696;2022-09-27T04:39:03;2.70;;;1.40;;
16504;SDS011;8365;51.030;4.696;2022-09-27T04:41:36;2.60;;;1.20;;
16504;SDS011;8365;51.030;4.696;2022-09-27T04:44:06;3.37;;;1.30;;
16504;SDS011;8365;51.030;4.696;2022-09-27T04:46:36;2.47;;;1.50;;
16504;SDS011;8365;51.030;4.696;2022-09-27T04:49:07;4.73;;;1.70;;
16504;SDS011;8365;51.030;4.696;2022-09-27T04:51:37;3.50;;;1.80;;
16504;SDS011;8365;51.030;4.696;2022-09-27T04:54:08;4.37;;;1.80;;
16504;SDS011;8365;51.030;4.696;2022-09-27T04:56:40;2.30;;;1.87;;
16504;SDS011;8365;51.030;4.696;2022-09-27T04:59:11;2.87;;;2.00;;
16504;SDS011;8365;51.030;4.696;2022-09-27T05:01:41;3.53;;;2.43;;
16504;SDS011;8365;51.030;4.696;2022-09-27T05:04:12;4.20;;;2.43;;
16504;SDS011;8365;51.030;4.696;2022-09-27T05:06:45;4.07;;;2.83;;
16504;SDS011;8365;51.030;4.696;2022-09-27T05:09:15;3.33;;;3.03;;
16504;SDS011;8365;51.030;4.696;2022-09-27T05:11:46;5.27;;;3.00;;
16504;SDS011;8365;51.030;4.696;2022-09-27T05:14:16;6.57;;;3.30;;
16504;SDS011;8365;51.030;4.696;2022-09-27T05:16:47;5.83;;;3.10;;
16504;SDS011;8365;51.030;4.696;2022-09-27T05:19:21;3.67;;;3.10;;
16504;SDS011;8365;51.030;4.696;2022-09-27T05:21:52;5.17;;;3.57;;
16504;SDS011;8365;51.030;4.696;2022-09-27T05:24:23;7.50;;;3.30;;
16504;SDS011;8365;51.030;4.696;2022-09-27T05:26:53;7.17;;;4.00;;
16504;SDS011;8365;51.030;4.696;2022-09-27T05:29:24;6.63;;;3.23;;
16504;SDS011;8365;51.030;4.696;2022-09-27T05:31:54;6.03;;;3.93;;
16504;SDS011;8365;51.030;4.696;2022-09-27T05:34:24;6.17;;;3.97;;
16504;SDS011;8365;51.030;4.696;2022-09-27T05:36:55;7.80;;;3.90;;
16504;SDS011;8365;51.030;4.696;2022-09-27T05:39:25;4.77;;;3.70;;
16504;SDS011;8365;51.030;4.696;2022-09-27T05:41:56;10.33;;;4.37;;
16504;SDS011;8365;51.030;4.696;2022-09-27T05:44:26;5.17;;;3.90;;
16504;SDS011;8365;51.030;4.696;2022-09-27T05:46:59;7.57;;;4.03;;
16504;SDS011;8365;51.030;4.696;2022-09-27T05:49:32;8.23;;;4.10;;
16504;SDS011;8365;51.030;4.696;2022-09-27T05:52:03;5.90;;;4.07;;
16504;SDS011;8365;51.030;4.696;2022-09-27T05:54:33;8.07;;;4.10;;
16504;SDS011;8365;51.030;4.696;2022-09-27T05:57:04;5.93;;;4.30;;
16504;SDS011;8365;51.030;4.696;2022-09-27T05:59:35;4.60;;;4.20;;
16504;SDS011;8365;51.030;4.696;2022-09-27T06:02:10;5.23;;;4.30;;
16504;SDS011;8365;51.030;4.696;2022-09-27T06:04:41;6.50;;;4.30;;
16504;SDS011;8365;51.030;4.696;2022-09-27T06:07:12;5.67;;;4.17;;
16504;SDS011;8365;51.030;4.696;2022-09-27T06:09:44;7.70;;;4.97;;
16504;SDS011;8365;51.030;4.696;2022-09-27T06:12:15;5.60;;;4.97;;
16504;SDS011;8365;51.030;4.696;2022-09-27T06:14:49;6.00;;;4.90;;
16504;SDS011;8365;51.030;4.696;2022-09-27T06:17:22;9.10;;;5.40;;
16504;SDS011;8365;51.030;4.696;2022-09-27T06:19:52;7.37;;;5.47;;
16504;SDS011;8365;51.030;4.696;2022-09-27T06:22:23;7.40;;;5.43;;
16504;SDS011;8365;51.030;4.696;2022-09-27T06:24:55;5.60;;;5.10;;
16504;SDS011;8365;51.030;4.696;2022-09-27T06:27:29;8.40;;;5.57;;
16504;SDS011;8365;51.030;4.696;2022-09-27T06:30:00;7.67;;;5.70;;
16504;SDS011;8365;51.030;4.696;2022-09-27T06:32:31;6.03;;;5.20;;
16504;SDS011;8365;51.030;4.696;2022-09-27T06:35:01;7.33;;;5.90;;
16504;SDS011;8365;51.030;4.696;2022-09-27T06:37:34;8.03;;;6.43;;
16504;SDS011;8365;51.030;4.696;2022-09-27T06:40:04;8.27;;;5.83;;
16504;SDS011;8365;51.030;4.696;2022-09-27T06:42:38;7.93;;;5.80;;
16504;SDS011;8365;51.030;4.696;2022-09-27T06:45:09;5.80;;;5.13;;
16504;SDS011;8365;51.030;4.696;2022-09-27T06:47:40;6.20;;;5.50;;
16504;SDS011;8365;51.030;4.696;2022-09-27T06:50:12;5.23;;;4.70;;
16504;SDS011;8365;51.030;4.696;2022-09-27T06:52:47;7.40;;;5.13;;
16504;SDS011;8365;51.030;4.696;2022-09-27T06:55:20;5.40;;;4.90;;
16504;SDS011;8365;51.030;4.696;2022-09-27T06:57:54;5.20;;;4.70;;
16504;SDS011;8365;51.030;4.696;2022-09-27T07:00:44;5.00;;;4.50;;
16504;SDS011;8365;51.030;4.696;2022-09-27T07:03:22;4.43;;;4.03;;
16504;SDS011;8365;51.030;4.696;2022-09-27T07:05:53;6.60;;;4.40;;
16504;SDS011;8365;51.030;4.696;2022-09-27T07:08:28;5.80;;;4.77;;
16504;SDS011;8365;51.030;4.696;2022-09-27T07:11:03;5.80;;;4.50;;
16504;SDS011;8365;51.030;4.696;2022-09-27T07:13:35;7.77;;;4.50;;
16504;SDS011;8365;51.030;4.696;2022-09-27T07:16:12;5.37;;;4.00;;
16504;SDS011;8365;51.030;4.696;2022-09-27T07:18:43;5.07;;;3.73;;
16504;SDS011;8365;51.030;4.696;2022-09-27T07:21:14;8.30;;;4.30;;
16504;SDS011;8365;51.030;4.696;2022-09-27T07:23:45;5.37;;;4.43;;
16504;SDS011;8365;51.030;4.696;2022-09-27T07:26:15;5.57;;;4.63;;
16504;SDS011;8365;51.030;4.696;2022-09-27T07:28:48;5.80;;;4.57;;
16504;SDS011;8365;51.030;4.696;2022-09-27T07:31:19;5.33;;;4.37;;
16504;SDS011;8365;51.030;4.696;2022-09-27T07:33:49;5.00;;;4.50;;
16504;SDS011;8365;51.030;4.696;2022-09-27T07:36:21;4.80;;;4.00;;
16504;SDS011;8365;51.030;4.696;2022-09-27T07:38:52;6.60;;;4.47;;
16504;SDS011;8365;51.030;4.696;2022-09-27T07:41:23;4.30;;;3.90;;
16504;SDS011;8365;51.030;4.696;2022-09-27T07:43:53;8.20;;;4.20;;
16504;SDS011;8365;51.030;4.696;2022-09-27T07:46:23;6.87;;;4.03;;
16504;SDS011;8365;51.030;4.696;2022-09-27T07:48:55;5.97;;;4.40;;
16504;SDS011;8365;51.030;4.696;2022-09-27T07:51:25;5.97;;;4.23;;
16504;SDS011;8365;51.030;4.696;2022-09-27T07:53:55;6.10;;;4.87;;
16504;SDS011;8365;51.030;4.696;2022-09-27T07:56:26;5.50;;;5.00;;
16504;SDS011;8365;51.030;4.696;2022-09-27T07:58:57;8.67;;;5.50;;
16504;SDS011;8365;51.030;4.696;2022-09-27T08:01:28;6.73;;;5.43;;
16504;SDS011;8365;51.030;4.696;2022-09-27T08:03:58;5.77;;;5.10;;
16504;SDS011;8365;51.030;4.696;2022-09-27T08:06:29;6.80;;;5.40;;
16504;SDS011;8365;51.030;4.696;2022-09-27T08:08:59;12.27;;;5.70;;
16504;SDS011;8365;51.030;4.696;2022-09-27T08:11:30;6.27;;;5.60;;
16504;SDS011;8365;51.030;4.696;2022-09-27T08:14:01;9.30;;;5.67;;
16504;SDS011;8365;51.030;4.696;2022-09-27T08:16:33;7.77;;;5.03;;
16504;SDS011;8365;51.030;4.696;2022-09-27T08:19:04;6.00;;;5.47;;
16504;SDS011;8365;51.030;4.696;2022-09-27T08:21:34;6.07;;;4.87;;
16504;SDS011;8365;51.030;4.696;2022-09-27T08:24:04;5.77;;;5.17;;
16504;SDS011;8365;51.030;4.696;2022-09-27T08:26:35;5.40;;;4.90;;
16504;SDS011;8365;51.030;4.696;2022-09-27T08:29:06;4.97;;;4.47;;
16504;SDS011;8365;51.030;4.696;2022-09-27T08:31:36;4.77;;;4.17;;
16504;SDS011;8365;51.030;4.696;2022-09-27T08:34:07;6.17;;;3.97;;
16504;SDS011;8365;51.030;4.696;2022-09-27T08:36:37;4.87;;;3.80;;
16504;SDS011;8365;51.030;4.696;2022-09-27T08:39:07;5.10;;;3.97;;
16504;SDS011;8365;51.030;4.696;2022-09-27T08:47:10;4.87;;;4.17;;
16504;SDS011;8365;51.030;4.696;2022-09-27T08:49:48;7.63;;;4.00;;
16504;SDS011;8365;51.030;4.696;2022-09-27T08:52:26;5.87;;;4.50;;
16504;SDS011;8365;51.030;4.696;2022-09-27T08:55:00;5.27;;;4.50;;
16504;SDS011;8365;51.030;4.696;2022-09-27T08:57:33;5.70;;;4.43;;
16504;SDS011;8365;51.030;4.696;2022-09-27T09:00:05;7.67;;;5.20;;
16504;SDS011;8365;51.030;4.696;2022-09-27T09:02:37;5.37;;;4.87;;
16504;SDS011;8365;51.030;4.696;2022-09-27T09:05:12;5.63;;;5.03;;
16504;SDS011;8365;51.030;4.696;2022-09-27T09:19:53;4.40;;;3.83;;
16504;SDS011;8365;51.030;4.696;2022-09-27T09:34:18;5.03;;;3.83;;
16504;SDS011;8365;51.030;4.696;2022-09-27T09:37:03;4.23;;;3.93;;
16504;SDS011;8365;51.030;4.696;2022-09-27T09:42:15;6.10;;;4.40;;
16504;SDS011;8365;51.030;4.696;2022-09-27T09:44:58;6.57;;;4.10;;
16504;SDS011;8365;51.030;4.696;2022-09-27T09:47:37;6.67;;;4.20;;
16504;SDS011;8365;51.030;4.696;2022-09-27T09:50:17;4.23;;;3.83;;
16504;SDS011;8365;51.030;4.696;2022-09-27T09:52:52;4.80;;;3.53;;
16504;SDS011;8365;51.030;4.696;2022-09-27T09:55:28;7.77;;;3.50;;
16504;SDS011;8365;51.030;4.696;2022-09-27T10:01:16;4.33;;;2.93;;
16504;SDS011;8365;51.030;4.696;2022-09-27T10:03:52;4.63;;;3.40;;
16504;SDS011;8365;51.030;4.696;2022-09-27T10:06:26;5.60;;;3.20;;
16504;SDS011;8365;51.030;4.696;2022-09-27T10:08:59;7.13;;;3.70;;
16504;SDS011;8365;51.030;4.696;2022-09-27T10:11:34;3.53;;;3.17;;
16504;SDS011;8365;51.030;4.696;2022-09-27T10:14:09;5.53;;;3.80;;
16504;SDS011;8365;51.030;4.696;2022-09-27T10:16:42;4.37;;;3.53;;
16504;SDS011;8365;51.030;4.696;2022-09-27T10:19:17;4.00;;;3.60;;
16504;SDS011;8365;51.030;4.696;2022-09-27T10:21:58;6.70;;;3.27;;
16504;SDS011;8365;51.030;4.696;2022-09-27T10:24:38;3.50;;;3.20;;
16504;SDS011;8365;51.030;4.696;2022-09-27T10:27:36;4.87;;;3.60;;
16504;SDS011;8365;51.030;4.696;2022-09-27T10:33:16;6.57;;;3.10;;
16504;SDS011;8365;51.030;4.696;2022-09-27T10:35:48;3.87;;;2.60;;
16504;SDS011;8365;51.030;4.696;2022-09-27T10:40:56;5.07;;;2.70;;
16504;SDS011;8365;51.030;4.696;2022-09-27T10:43:44;5.73;;;3.10;;
16504;SDS011;8365;51.030;4.696;2022-09-27T10:46:18;3.43;;;2.70;;
16504;SDS011;8365;51.030;4.696;2022-09-27T10:52:12;3.77;;;2.70;;
16504;SDS011;8365;51.030;4.696;2022-09-27T10:54:52;5.67;;;2.70;;
16504;SDS011;8365;51.030;4.696;2022-09-27T10:57:24;6.47;;;2.50;;
16504;SDS011;8365;51.030;4.696;2022-09-27T10:59:58;5.27;;;2.50;;
16504;SDS011;8365;51.030;4.696;2022-09-27T11:02:36;5.53;;;2.70;;
16504;SDS011;8365;51.030;4.696;2022-09-27T11:05:13;7.80;;;3.33;;
16504;SDS011;8365;51.030;4.696;2022-09-27T11:08:01;6.20;;;2.70;;
16504;SDS011;8365;51.030;4.696;2022-09-27T11:19:27;5.60;;;2.50;;
16504;SDS011;8365;51.030;4.696;2022-09-27T11:22:26;4.47;;;2.67;;
16504;SDS011;8365;51.030;4.696;2022-09-27T11:25:19;3.40;;;2.20;;
16504;SDS011;8365;51.030;4.696;2022-09-27T11:28:07;5.70;;;2.20;;
16504;SDS011;8365;51.030;4.696;2022-09-27T11:42:26;3.60;;;1.73;;
16504;SDS011;8365;51.030;4.696;2022-09-27T11:45:24;4.47;;;2.37;;
16504;SDS011;8365;51.030;4.696;2022-09-27T11:48:11;3.03;;;2.10;;
16504;SDS011;8365;51.030;4.696;2022-09-27T12:00:19;4.77;;;2.57;;
16504;SDS011;8365;51.030;4.696;2022-09-27T12:05:52;3.53;;;2.73;;
16504;SDS011;8365;51.030;4.696;2022-09-27T12:08:29;4.50;;;2.63;;
16504;SDS011;8365;51.030;4.696;2022-09-27T12:14:15;6.20;;;3.00;;
16504;SDS011;8365;51.030;4.696;2022-09-27T12:16:53;6.80;;;2.40;;
16504;SDS011;8365;51.030;4.696;2022-09-27T12:19:31;5.87;;;2.40;;
16504;SDS011;8365;51.030;4.696;2022-09-27T12:22:10;4.90;;;2.03;;
16504;SDS011;8365;51.030;4.696;2022-09-27T12:24:43;4.17;;;2.17;;
16504;SDS011;8365;51.030;4.696;2022-09-27T12:27:18;4.73;;;1.80;;
16504;SDS011;8365;51.030;4.696;2022-09-27T12:29:59;2.50;;;1.83;;
16504;SDS011;8365;51.030;4.696;2022-09-27T12:35:26;2.10;;;1.40;;
16504;SDS011;8365;51.030;4.696;2022-09-27T12:38:03;2.13;;;1.10;;
16504;SDS011;8365;51.030;4.696;2022-09-27T12:40:40;2.97;;;1.10;;
16504;SDS011;8365;51.030;4.696;2022-09-27T12:43:16;1.97;;;1.00;;
16504;SDS011;8365;51.030;4.696;2022-09-27T12:51:50;4.40;;;1.90;;
16504;SDS011;8365;51.030;4.696;2022-09-27T12:58:20;1.47;;;1.30;;
16504;SDS011;8365;51.030;4.696;2022-09-27T13:11:56;3.33;;;1.30;;
16504;SDS011;8365;51.030;4.696;2022-09-27T13:14:50;3.90;;;1.33;;
16504;SDS011;8365;51.030;4.696;2022-09-27T13:31:09;3.13;;;1.40;;
16504;SDS011;8365;51.030;4.696;2022-09-27T13:36:25;2.90;;;1.43;;
16504;SDS011;8365;51.030;4.696;2022-09-27T13:47:25;4.90;;;1.70;;
16504;SDS011;8365;51.030;4.696;2022-09-27T13:56:45;5.70;;;2.10;;
16504;SDS011;8365;51.030;4.696;2022-09-27T14:04:56;2.77;;;1.80;;
16504;SDS011;8365;51.030;4.696;2022-09-27T14:07:35;3.40;;;1.40;;
16504;SDS011;8365;51.030;4.696;2022-09-27T14:10:13;3.00;;;1.53;;
16504;SDS011;8365;51.030;4.696;2022-09-27T14:12:46;5.37;;;1.97;;
16504;SDS011;8365;51.030;4.696;2022-09-27T14:15:21;5.07;;;1.57;;
16504;SDS011;8365;51.030;4.696;2022-09-27T14:17:54;6.93;;;1.60;;
16504;SDS011;8365;51.030;4.696;2022-09-27T14:23:02;2.87;;;1.47;;
16504;SDS011;8365;51.030;4.696;2022-09-27T14:25:37;2.10;;;1.17;;
16504;SDS011;8365;51.030;4.696;2022-09-27T14:28:20;1.83;;;1.20;;
16504;SDS011;8365;51.030;4.696;2022-09-27T14:31:04;4.17;;;1.40;;
16504;SDS011;8365;51.030;4.696;2022-09-27T14:33:46;5.20;;;1.57;;
16504;SDS011;8365;51.030;4.696;2022-09-27T14:36:28;1.23;;;1.07;;
16504;SDS011;8365;51.030;4.696;2022-09-27T14:39:24;4.50;;;1.97;;
16504;SDS011;8365;51.030;4.696;2022-09-27T14:42:19;3.97;;;1.90;;
16504;SDS011;8365;51.030;4.696;2022-09-27T14:44:52;4.57;;;1.93;;
16504;SDS011;8365;51.030;4.696;2022-09-27T14:47:41;1.97;;;1.40;;
16504;SDS011;8365;51.030;4.696;2022-09-27T14:52:58;2.33;;;1.37;;
16504;SDS011;8365;51.030;4.696;2022-09-27T14:55:30;4.73;;;1.97;;
16504;SDS011;8365;51.030;4.696;2022-09-27T14:58:03;2.30;;;1.57;;
16504;SDS011;8365;51.030;4.696;2022-09-27T15:00:34;3.73;;;1.70;;
16504;SDS011;8365;51.030;4.696;2022-09-27T15:03:06;4.00;;;1.93;;
16504;SDS011;8365;51.030;4.696;2022-09-27T15:05:40;3.00;;;1.57;;
16504;SDS011;8365;51.030;4.696;2022-09-27T15:08:12;5.43;;;1.70;;
16504;SDS011;8365;51.030;4.696;2022-09-27T15:10:44;5.93;;;1.80;;
16504;SDS011;8365;51.030;4.696;2022-09-27T15:13:16;4.53;;;1.60;;
16504;SDS011;8365;51.030;4.696;2022-09-27T15:15:48;4.20;;;1.40;;
16504;SDS011;8365;51.030;4.696;2022-09-27T15:21:03;5.87;;;2.20;;
16504;SDS011;8365;51.030;4.696;2022-09-27T15:23:36;1.93;;;1.37;;
16504;SDS011;8365;51.030;4.696;2022-09-27T15:26:18;2.67;;;1.70;;
16504;SDS011;8365;51.030;4.696;2022-09-27T15:28:52;3.30;;;1.90;;
16504;SDS011;8365;51.030;4.696;2022-09-27T15:31:30;3.17;;;2.10;;
16504;SDS011;8365;51.030;4.696;2022-09-27T15:34:03;7.53;;;2.53;;
16504;SDS011;8365;51.030;4.696;2022-09-27T15:39:26;4.40;;;2.00;;
16504;SDS011;8365;51.030;4.696;2022-09-27T15:42:03;5.43;;;2.47;;
16504;SDS011;8365;51.030;4.696;2022-09-27T15:52:45;4.20;;;2.30;;
16504;SDS011;8365;51.030;4.696;2022-09-27T15:55:20;5.07;;;2.60;;
16504;SDS011;8365;51.030;4.696;2022-09-27T16:00:28;4.63;;;3.13;;
16504;SDS011;8365;51.030;4.696;2022-09-27T16:02:58;6.13;;;3.10;;
16504;SDS011;8365;51.030;4.696;2022-09-27T16:05:29;5.50;;;2.53;;
16504;SDS011;8365;51.030;4.696;2022-09-27T16:08:02;4.10;;;3.27;;
16504;SDS011;8365;51.030;4.696;2022-09-27T16:10:36;6.83;;;2.97;;
16504;SDS011;8365;51.030;4.696;2022-09-27T16:13:11;2.77;;;2.20;;
16504;SDS011;8365;51.030;4.696;2022-09-27T16:15:41;4.63;;;3.03;;
16504;SDS011;8365;51.030;4.696;2022-09-27T16:18:12;4.53;;;2.90;;
16504;SDS011;8365;51.030;4.696;2022-09-27T16:20:43;3.73;;;2.60;;
16504;SDS011;8365;51.030;4.696;2022-09-27T16:23:14;3.80;;;2.20;;
16504;SDS011;8365;51.030;4.696;2022-09-27T16:25:44;4.97;;;2.50;;
16504;SDS011;8365;51.030;4.696;2022-09-27T16:28:15;2.60;;;2.20;;
16504;SDS011;8365;51.030;4.696;2022-09-27T16:30:45;5.20;;;2.30;;
16504;SDS011;8365;51.030;4.696;2022-09-27T16:33:20;3.27;;;1.90;;
16504;SDS011;8365;51.030;4.696;2022-09-27T16:35:51;2.77;;;1.90;;
16504;SDS011;8365;51.030;4.696;2022-09-27T16:38:22;4.63;;;2.10;;
16504;SDS011;8365;51.030;4.696;2022-09-27T16:40:59;4.77;;;2.37;;
16504;SDS011;8365;51.030;4.696;2022-09-27T16:43:31;3.47;;;2.40;;
16504;SDS011;8365;51.030;4.696;2022-09-27T16:46:03;3.40;;;2.13;;
16504;SDS011;8365;51.030;4.696;2022-09-27T16:48:37;3.93;;;2.70;;
16504;SDS011;8365;51.030;4.696;2022-09-27T16:51:18;4.43;;;2.80;;
16504;SDS011;8365;51.030;4.696;2022-09-27T16:54:08;5.40;;;2.90;;
16504;SDS011;8365;51.030;4.696;2022-09-27T16:56:39;4.47;;;3.07;;
16504;SDS011;8365;51.030;4.696;2022-09-27T16:59:10;3.90;;;3.07;;
16504;SDS011;8365;51.030;4.696;2022-09-27T17:01:41;6.33;;;3.10;;
16504;SDS011;8365;51.030;4.696;2022-09-27T17:04:11;5.43;;;3.30;;
16504;SDS011;8365;51.030;4.696;2022-09-27T17:06:43;5.13;;;3.50;;
16504;SDS011;8365;51.030;4.696;2022-09-27T17:09:13;5.57;;;3.20;;
16504;SDS011;8365;51.030;4.696;2022-09-27T17:11:44;5.77;;;3.30;;
16504;SDS011;8365;51.030;4.696;2022-09-27T17:14:17;6.93;;;3.60;;
16504;SDS011;8365;51.030;4.696;2022-09-27T17:16:48;3.73;;;3.30;;
16504;SDS011;8365;51.030;4.696;2022-09-27T17:19:18;3.87;;;3.43;;
16504;SDS011;8365;51.030;4.696;2022-09-27T17:21:49;4.40;;;4.00;;
16504;SDS011;8365;51.030;4.696;2022-09-27T17:24:21;5.67;;;3.63;;
16504;SDS011;8365;51.030;4.696;2022-09-27T17:26:52;6.50;;;4.37;;
16504;SDS011;8365;51.030;4.696;2022-09-27T17:29:24;6.10;;;4.73;;
16504;SDS011;8365;51.030;4.696;2022-09-27T17:31:54;11.47;;;5.77;;
16504;SDS011;8365;51.030;4.696;2022-09-27T17:34:25;7.40;;;5.10;;
16504;SDS011;8365;51.030;4.696;2022-09-27T17:36:56;7.80;;;5.50;;
16504;SDS011;8365;51.030;4.696;2022-09-27T17:39:30;8.23;;;5.90;;
16504;SDS011;8365;51.030;4.696;2022-09-27T17:42:00;7.73;;;6.10;;
16504;SDS011;8365;51.030;4.696;2022-09-27T17:44:31;5.60;;;4.63;;
16504;SDS011;8365;51.030;4.696;2022-09-27T17:47:02;6.33;;;5.23;;
16504;SDS011;8365;51.030;4.696;2022-09-27T17:49:51;6.00;;;4.20;;
16504;SDS011;8365;51.030;4.696;2022-09-27T17:52:40;6.27;;;4.07;;
16504;SDS011;8365;51.030;4.696;2022-09-27T17:55:11;8.73;;;3.80;;
16504;SDS011;8365;51.030;4.696;2022-09-27T17:57:41;4.20;;;3.40;;
16504;SDS011;8365;51.030;4.696;2022-09-27T18:00:12;3.87;;;2.70;;
16504;SDS011;8365;51.030;4.696;2022-09-27T18:02:42;3.57;;;2.63;;
16504;SDS011;8365;51.030;4.696;2022-09-27T18:05:16;4.10;;;2.70;;
16504;SDS011;8365;51.030;4.696;2022-09-27T18:07:50;3.07;;;2.83;;
16504;SDS011;8365;51.030;4.696;2022-09-27T18:10:20;3.90;;;2.80;;
16504;SDS011;8365;51.030;4.696;2022-09-27T18:12:50;6.10;;;3.00;;
16504;SDS011;8365;51.030;4.696;2022-09-27T18:15:22;3.77;;;2.77;;
16504;SDS011;8365;51.030;4.696;2022-09-27T18:17:53;3.07;;;2.70;;
16504;SDS011;8365;51.030;4.696;2022-09-27T18:20:25;3.20;;;2.70;;
16504;SDS011;8365;51.030;4.696;2022-09-27T18:22:56;3.90;;;2.70;;
16504;SDS011;8365;51.030;4.696;2022-09-27T18:25:29;3.80;;;2.60;;
16504;SDS011;8365;51.030;4.696;2022-09-27T18:28:00;3.37;;;2.40;;
16504;SDS011;8365;51.030;4.696;2022-09-27T18:30:34;3.57;;;2.70;;
16504;SDS011;8365;51.030;4.696;2022-09-27T18:33:04;4.23;;;2.90;;
16504;SDS011;8365;51.030;4.696;2022-09-27T18:35:34;3.60;;;2.30;;
16504;SDS011;8365;51.030;4.696;2022-09-27T18:38:05;3.93;;;2.50;;
16504;SDS011;8365;51.030;4.696;2022-09-27T18:40:35;3.47;;;2.50;;
16504;SDS011;8365;51.030;4.696;2022-09-27T18:43:06;2.93;;;2.40;;
16504;SDS011;8365;51.030;4.696;2022-09-27T18:45:36;2.83;;;2.50;;
16504;SDS011;8365;51.030;4.696;2022-09-27T18:48:07;3.43;;;2.70;;
16504;SDS011;8365;51.030;4.696;2022-09-27T18:50:38;4.37;;;3.00;;
16504;SDS011;8365;51.030;4.696;2022-09-27T18:53:08;3.17;;;2.77;;
16504;SDS011;8365;51.030;4.696;2022-09-27T18:55:39;4.77;;;3.43;;
16504;SDS011;8365;51.030;4.696;2022-09-27T18:58:12;4.83;;;3.70;;
16504;SDS011;8365;51.030;4.696;2022-09-27T19:00:44;4.67;;;3.73;;
16504;SDS011;8365;51.030;4.696;2022-09-27T19:03:15;21.27;;;19.53;;
16504;SDS011;8365;51.030;4.696;2022-09-27T19:05:52;4.67;;;3.60;;
16504;SDS011;8365;51.030;4.696;2022-09-27T19:08:23;5.03;;;2.90;;
16504;SDS011;8365;51.030;4.696;2022-09-27T19:10:54;3.73;;;2.97;;
16504;SDS011;8365;51.030;4.696;2022-09-27T19:13:25;3.83;;;3.23;;
16504;SDS011;8365;51.030;4.696;2022-09-27T19:15:55;5.20;;;4.73;;
16504;SDS011;8365;51.030;4.696;2022-09-27T19:18:27;5.23;;;4.73;;
16504;SDS011;8365;51.030;4.696;2022-09-27T19:21:08;8.13;;;7.57;;